Time;durP1;ratioP1;P1;durP2;ratioP2;P2;SDS_P1;SDS_P2;PMS_P1;PMS_P2;Temp;Humidity;BMP_temperature;BMP_pressure;BME280_temperature;BME280_humidity;BME280_pressure;Samples;Min_cycle;Max_cycle;Signal;HPM_P1;HPM_P2
2021/04/08 00:00:49;;;;;;;;;;;;;;;;;;1478769;40;7108;-62
2021/04/08 00:01:50;;;;;;;;;;;;;;;;;;1479172;40;8285;-62
2021/04/08 00:02:52;;;;;;;;;;;;;;;;;;1478958;40;7863;-62
2021/04/08 00:03:54;;;;;;;;;;;;;;;;;;1479151;40;7000;-62
2021/04/08 00:04:56;;;;;;;;;;;;;;;;;;1479131;40;7009;-61
2021/04/08 00:05:59;;;;;;;;;;;;;;;;;;1479093;40;7952;-61
2021/04/08 00:07:01;;;;;;;;;;;;;;;;;;1479188;40;8005;-61
2021/04/08 00:08:03;;;;;;;;;;;;;;;;;;1477743;40;6999;-62
2021/04/08 00:09:05;;;;;;;;;;;;;;;;;;1478655;40;7047;-61
2021/04/08 00:10:09;;;;;;;;;;;;;;;;;;1479162;40;7000;-62
2021/04/08 00:11:11;;;;;;;;;;;;;;;;;;1479078;40;7120;-62
2021/04/08 00:12:13;;;;;;;;;;;;;;;;;;1478899;40;7873;-62
2021/04/08 00:13:15;;;;;;;;;;;;;;;;;;1478804;40;6992;-61
2021/04/08 00:14:17;;;;;;;;;;;;;;;;;;1478692;40;7015;-62
2021/04/08 00:15:19;;;;;;;;;;;;;;;;;;1478711;40;7023;-61
2021/04/08 00:16:21;;;;;;;;;;;;;;;;;;1479005;40;7109;-61
2021/04/08 00:17:23;;;;;;;;;;;;;;;;;;1477927;40;7023;-61
2021/04/08 00:18:24;;;;;;;;;;;;;;;;;;1477905;40;7019;-62
2021/04/08 00:19:27;;;;;;;;;;;;;;;;;;1477821;40;7027;-61
2021/04/08 00:20:28;;;;;;;;;;;;;;;;;;1478803;40;7073;-62
2021/04/08 00:21:30;;;;;;;;;;;;;;;;;;1478701;40;7012;-62
2021/04/08 00:22:32;;;;;;;;;;;;;;;;;;1478660;40;7884;-61
2021/04/08 00:23:34;;;;;;;;;;;;;;;;;;1478981;40;6992;-61
2021/04/08 00:24:36;;;;;;;;;;;;;;;;;;1479075;40;7023;-62
2021/04/08 00:25:38;;;;;;;;;;;;;;;;;;1477784;40;7000;-61
2021/04/08 00:26:40;;;;;;;;;;;;;;;;;;1478748;40;7913;-62
2021/04/08 00:27:43;;;;;;;;;;;;;;;;;;1478911;40;7888;-61
2021/04/08 00:28:45;;;;;;;;;;;;;;;;;;1479108;40;7040;-61
2021/04/08 00:29:47;;;;;;;;;;;;;;;;;;1479047;40;7005;-61
2021/04/08 00:30:49;;;;;;;;;;;;;;;;;;1478425;40;7098;-62
2021/04/08 00:31:51;;;;;;;;;;;;;;;;;;1478405;40;6995;-62
2021/04/08 00:32:53;;;;;;;;;;;;;;;;;;1479497;40;7957;-61
2021/04/08 00:33:55;;;;;;;;;;;;;;;;;;1479433;40;6983;-61
2021/04/08 00:34:57;;;;;;;;;;;;;;;;;;1478104;40;7043;-62
2021/04/08 00:35:59;;;;;;;;;;;;;;;;;;1479290;40;7540;-62
2021/04/08 00:37:01;;;;;;;;;;;;;;;;;;1479301;40;7100;-62
2021/04/08 00:38:04;;;;;;;;;;;;;;;;;;1478927;40;9213;-62
2021/04/08 00:39:06;;;;;;;;;;;;;;;;;;1479167;40;7877;-61
2021/04/08 00:40:14;;;;;;;;;;;;;;;;;;1479271;40;6992;-61
2021/04/08 00:41:16;;;;;;;;;;;;;;;;;;1479332;40;6987;-62
2021/04/08 00:42:18;;;;;;;;;;;;;;;;;;1479186;40;7000;-61
2021/04/08 00:43:20;;;;;;;;;;;;;;;;;;1479174;40;7000;-62
2021/04/08 00:44:22;;;;;;;;;;;;;;;;;;1479041;40;7897;-61
2021/04/08 00:45:24;;;;;;;;;;;;;;;;;;1479711;40;6999;-61
2021/04/08 00:46:26;;;;;;;;;;;;;;;;;;1479201;40;7863;-62
2021/04/08 00:47:28;;;;;;;;;;;;;;;;;;1479483;40;7008;-62
2021/04/08 00:48:30;;;;;;;;;;;;;;;;;;1479400;40;7042;-61
2021/04/08 00:49:32;;;;;;;;;;;;;;;;;;1478990;40;6991;-61
2021/04/08 00:50:34;;;;;;;;;;;;;;;;;;1479040;40;7452;-61
2021/04/08 00:51:36;;;;;;;;;;;;;;;;;;1479020;40;7144;-61
2021/04/08 00:52:41;;;;;;;;;;;;;;;;;;1483471;40;6999;-62
2021/04/08 00:53:44;;;;;;;;;;;;;;;;;;1486682;40;6991;-61
2021/04/08 00:54:46;;;;;;;;;;;;;;;;;;1482782;40;7115;-62
2021/04/08 00:55:51;;;;;;;;;;;;;;;;;;1483331;40;6999;-61
2021/04/08 00:56:53;;;;;;;;;;;;;;;;;;1480024;40;7962;-61
2021/04/08 00:57:56;;;;;;;;;;;;;;;;;;1478882;40;7031;-61
2021/04/08 00:58:58;;;;;;;;;;;;;;;;;;1479044;40;7000;-61
2021/04/08 01:00:02;;;;;;;;;;;;;;;;;;1479490;40;7917;-62
2021/04/08 01:01:04;;;;;;;;;;;;;;;;;;1479121;40;8004;-62
2021/04/08 01:02:07;;;;;;;;;;;;;;;;;;1479196;40;7857;-61
2021/04/08 01:03:10;;;;;;;;;;;;;;;;;;1479140;40;7008;-61
2021/04/08 01:04:12;;;;;;;;;;;;;;;;;;1479499;40;7031;-61
2021/04/08 01:05:14;;;;;;;;;;;;;;;;;;1479453;40;7004;-61
2021/04/08 01:06:16;;;;;;;;;;;;;;;;;;1479045;40;7004;-62
2021/04/08 01:07:19;;;;;;;;;;;;;;;;;;1478808;40;6992;-63
2021/04/08 01:08:20;;;;;;;;;;;;;;;;;;1479288;40;7886;-61
2021/04/08 01:09:22;;;;;;;;;;;;;;;;;;1483146;40;7023;-61
2021/04/08 01:10:25;;;;;;;;;;;;;;;;;;1483149;40;6999;-61
2021/04/08 01:11:27;;;;;;;;;;;;;;;;;;1482300;40;6999;-62
2021/04/08 01:12:29;;;;;;;;;;;;;;;;;;1479258;40;6996;-61
2021/04/08 01:13:33;;;;;;;;;;;;;;;;;;1478981;40;7031;-62
2021/04/08 01:14:35;;;;;;;;;;;;;;;;;;1478907;40;7195;-61
2021/04/08 01:15:38;;;;;;;;;;;;;;;;;;1482107;40;7039;-62
2021/04/08 01:17:00;;;;;;;;;;;;;;;;;;1483046;40;7011;-61
2021/04/08 01:18:17;;;;;;;;;;;;;;;;;;1481754;40;7115;-61
2021/04/08 01:19:31;;;;;;;;;;;;;;;;;;1481595;40;7011;-62
2021/04/08 01:20:45;;;;;;;;;;;;;;;;;;1478778;40;6999;-62
2021/04/08 01:22:04;;;;;;;;;;;;;;;;;;1482108;40;6991;-61
2021/04/08 01:23:12;;;;;;;;;;;;;;;;;;1480438;40;7077;-62
2021/04/08 01:24:17;;;;;;;;;;;;;;;;;;1479036;40;7035;-61
2021/04/08 01:25:21;;;;;;;;;;;;;;;;;;1479924;40;7028;-62
2021/04/08 01:26:33;;;;;;;;;;;;;;;;;;1481917;40;7829;-61
2021/04/08 01:27:54;;;;;;;;;;;;;;;;;;1479026;40;7027;-62
2021/04/08 01:29:02;;;;;;;;;;;;;;;;;;1478810;40;8375;-62
2021/04/08 01:30:32;;;;;;;;;;;;;;;;;;1479072;40;7027;-61
2021/04/08 01:31:36;;;;;;;;;;;;;;;;;;1478305;40;6988;-61
2021/04/08 01:32:43;;;;;;;;;;;;;;;;;;1479032;40;6987;-62
2021/04/08 01:33:48;;;;;;;;;;;;;;;;;;1478967;40;7208;-62
2021/04/08 01:34:51;;;;;;;;;;;;;;;;;;1479194;40;7039;-62
2021/04/08 01:35:53;;;;;;;;;;;;;;;;;;1479405;40;7008;-62
2021/04/08 01:37:00;;;;;;;;;;;;;;;;;;1478892;40;7040;-61
2021/04/08 01:38:07;;;;;;;;;;;;;;;;;;1479449;40;6992;-62
2021/04/08 01:39:12;;;;;;;;;;;;;;;;;;1478889;40;7048;-62
2021/04/08 01:40:16;;;;;;;;;;;;;;;;;;1478860;40;7000;-62
2021/04/08 01:41:19;;;;;;;;;;;;;;;;;;1479040;40;7872;-62
2021/04/08 01:42:24;;;;;;;;;;;;;;;;;;1479163;40;7123;-62
2021/04/08 01:43:30;;;;;;;;;;;;;;;;;;1481691;40;8475;-61
2021/04/08 01:44:35;;;;;;;;;;;;;;;;;;1483343;40;7119;-62
2021/04/08 01:45:37;;;;;;;;;;;;;;;;;;1483454;40;7121;-61
2021/04/08 01:46:41;;;;;;;;;;;;;;;;;;1479032;40;6996;-62
2021/04/08 01:47:45;;;;;;;;;;;;;;;;;;1479603;40;6999;-62
2021/04/08 01:48:50;;;;;;;;;;;;;;;;;;1479650;40;7879;-62
2021/04/08 01:49:55;;;;;;;;;;;;;;;;;;1479320;40;7000;-62
2021/04/08 01:50:59;;;;;;;;;;;;;;;;;;1478891;40;7008;-62
2021/04/08 01:52:01;;;;;;;;;;;;;;;;;;1478860;40;7854;-62
2021/04/08 01:53:05;;;;;;;;;;;;;;;;;;1474523;40;7252;-62
2021/04/08 01:54:08;;;;;;;;;;;;;;;;;;1474671;40;7015;-62
2021/04/08 01:55:11;;;;;;;;;;;;;;;;;;1474618;40;7076;-62
2021/04/08 01:56:16;;;;;;;;;;;;;;;;;;1474792;40;7011;-61
2021/04/08 01:57:20;;;;;;;;;;;;;;;;;;1474812;40;7000;-62
2021/04/08 01:58:24;;;;;;;;;;;;;;;;;;1474580;40;7031;-62
2021/04/08 01:59:27;;;;;;;;;;;;;;;;;;1474334;40;7088;-62
2021/04/08 02:00:30;;;;;;;;;;;;;;;;;;1475114;40;7040;-62
2021/04/08 02:01:32;;;;;;;;;;;;;;;;;;1474866;40;7154;-61
2021/04/08 02:02:36;;;;;;;;;;;;;;;;;;1474810;40;7160;-61
2021/04/08 02:03:41;;;;;;;;;;;;;;;;;;1474755;40;6992;-62
2021/04/08 02:04:45;;;;;;;;;;;;;;;;;;1474613;40;7947;-62
2021/04/08 02:05:48;;;;;;;;;;;;;;;;;;1474517;40;7124;-62
2021/04/08 02:06:51;;;;;;;;;;;;;;;;;;1474926;40;7003;-62
2021/04/08 02:07:55;;;;;;;;;;;;;;;;;;1474586;40;7044;-61
2021/04/08 02:08:58;;;;;;;;;;;;;;;;;;1478433;40;7932;-62
2021/04/08 02:10:01;;;;;;;;;;;;;;;;;;1479315;40;7947;-61
2021/04/08 02:11:04;;;;;;;;;;;;;;;;;;1478717;40;7003;-62
2021/04/08 02:12:07;;;;;;;;;;;;;;;;;;1474845;40;7919;-62
2021/04/08 02:13:12;;;;;;;;;;;;;;;;;;1474635;40;7023;-61
2021/04/08 02:14:16;;;;;;;;;;;;;;;;;;1474421;40;7000;-61
2021/04/08 02:15:19;;;;;;;;;;;;;;;;;;1474664;40;6999;-61
2021/04/08 02:16:21;;;;;;;;;;;;;;;;;;1474377;40;7027;-62
2021/04/08 02:17:24;;;;;;;;;;;;;;;;;;1474407;40;7000;-61
2021/04/08 02:18:28;;;;;;;;;;;;;;;;;;1474293;40;6999;-61
2021/04/08 02:19:32;;;;;;;;;;;;;;;;;;1477452;40;7007;-61
2021/04/08 02:20:34;;;;;;;;;;;;;;;;;;1478479;40;7935;-61
2021/04/08 02:21:38;;;;;;;;;;;;;;;;;;1477255;40;7044;-61
2021/04/08 02:22:48;;;;;;;;;;;;;;;;;;1475751;40;8415;-60
2021/04/08 02:23:51;;;;;;;;;;;;;;;;;;1475320;40;6991;-61
2021/04/08 02:24:54;;;;;;;;;;;;;;;;;;1473063;40;7233;-62
2021/04/08 02:25:58;;;;;;;;;;;;;;;;;;1469937;40;7000;-62
2021/04/08 02:27:01;;;;;;;;;;;;;;;;;;1474430;40;7019;-61
2021/04/08 02:28:05;;;;;;;;;;;;;;;;;;1474819;40;7940;-61
2021/04/08 02:29:09;;;;;;;;;;;;;;;;;;1474643;40;7112;-61
2021/04/08 02:30:12;;;;;;;;;;;;;;;;;;1474802;40;7113;-61
2021/04/08 02:31:16;;;;;;;;;;;;;;;;;;1474604;40;7051;-62
2021/04/08 02:32:19;;;;;;;;;;;;;;;;;;1474643;40;7117;-61
2021/04/08 02:33:22;;;;;;;;;;;;;;;;;;1474611;40;7122;-61
2021/04/08 02:34:24;;;;;;;;;;;;;;;;;;1474344;40;7027;-61
2021/04/08 02:35:26;;;;;;;;;;;;;;;;;;1474846;40;7540;-61
2021/04/08 02:36:28;;;;;;;;;;;;;;;;;;1474231;40;7007;-62
2021/04/08 02:37:30;;;;;;;;;;;;;;;;;;1478505;40;7039;-61
2021/04/08 02:38:34;;;;;;;;;;;;;;;;;;1478635;40;6999;-62
2021/04/08 02:39:36;;;;;;;;;;;;;;;;;;1478531;40;7042;-62
2021/04/08 02:40:38;;;;;;;;;;;;;;;;;;1478584;40;7055;-62
2021/04/08 02:41:41;;;;;;;;;;;;;;;;;;1478415;40;7115;-61
2021/04/08 02:42:43;;;;;;;;;;;;;;;;;;1474813;40;6992;-62
2021/04/08 02:43:45;;;;;;;;;;;;;;;;;;1474898;40;6999;-61
2021/04/08 02:44:48;;;;;;;;;;;;;;;;;;1474668;40;6999;-61
2021/04/08 02:45:50;;;;;;;;;;;;;;;;;;1474869;40;7016;-61
2021/04/08 02:46:52;;;;;;;;;;;;;;;;;;1475311;40;7000;-62
2021/04/08 02:47:54;;;;;;;;;;;;;;;;;;1474095;40;7091;-61
2021/04/08 02:48:56;;;;;;;;;;;;;;;;;;1476892;40;6991;-62
2021/04/08 02:49:59;;;;;;;;;;;;;;;;;;1474666;40;6992;-62
2021/04/08 02:51:18;;;;;;;;;;;;;;;;;;1474667;40;7000;-62
2021/04/08 02:52:24;;;;;;;;;;;;;;;;;;1476924;40;7019;-61
2021/04/08 02:53:35;;;;;;;;;;;;;;;;;;1481953;40;7052;-62
2021/04/08 02:54:48;;;;;;;;;;;;;;;;;;1479107;40;7200;-61
2021/04/08 02:56:01;;;;;;;;;;;;;;;;;;1478932;40;7059;-62
2021/04/08 02:57:05;;;;;;;;;;;;;;;;;;1479167;40;7075;-62
2021/04/08 02:58:10;;;;;;;;;;;;;;;;;;1478980;40;7003;-61
2021/04/08 02:59:32;;;;;;;;;;;;;;;;;;1479047;40;6991;-61
2021/04/08 03:00:39;;;;;;;;;;;;;;;;;;1477526;40;7011;-62
2021/04/08 03:01:50;;;;;;;;;;;;;;;;;;1477912;40;7016;-62
2021/04/08 03:02:54;;;;;;;;;;;;;;;;;;1479241;40;7000;-61
2021/04/08 03:03:59;;;;;;;;;;;;;;;;;;1479018;40;7184;-61
2021/04/08 03:05:04;;;;;;;;;;;;;;;;;;1478471;40;7036;-61
2021/04/08 03:06:08;;;;;;;;;;;;;;;;;;1478493;40;7891;-61
2021/04/08 03:07:11;;;;;;;;;;;;;;;;;;1478690;40;7039;-61
2021/04/08 03:08:16;;;;;;;;;;;;;;;;;;1478913;40;7118;-62
2021/04/08 03:09:26;;;;;;;;;;;;;;;;;;1482906;40;7008;-61
2021/04/08 03:10:29;;;;;;;;;;;;;;;;;;1482953;40;7122;-61
2021/04/08 03:11:33;;;;;;;;;;;;;;;;;;1481621;40;6999;-61
2021/04/08 03:12:39;;;;;;;;;;;;;;;;;;1478916;40;7023;-61
2021/04/08 03:13:43;;;;;;;;;;;;;;;;;;1488770;39;8959;-61
2021/04/08 03:14:50;;;;;;;;;;;;;;;;;;1488116;39;6991;-62
2021/04/08 03:15:54;;;;;;;;;;;;;;;;;;1478730;40;7926;-62
2021/04/08 03:16:59;;;;;;;;;;;;;;;;;;1478616;40;7928;-61
2021/04/08 03:18:04;;;;;;;;;;;;;;;;;;1478563;40;7023;-61
2021/04/08 03:19:10;;;;;;;;;;;;;;;;;;1479581;40;7019;-61
2021/04/08 03:20:14;;;;;;;;;;;;;;;;;;1482415;40;6991;-62
2021/04/08 03:21:17;;;;;;;;;;;;;;;;;;1482065;40;6992;-61
2021/04/08 03:22:22;;;;;;;;;;;;;;;;;;1479150;40;7035;-61
2021/04/08 03:23:25;;;;;;;;;;;;;;;;;;1479175;40;7075;-61
2021/04/08 03:24:28;;;;;;;;;;;;;;;;;;1479150;40;7004;-62
2021/04/08 03:25:31;;;;;;;;;;;;;;;;;;1479285;40;7177;-61
2021/04/08 03:26:33;;;;;;;;;;;;;;;;;;1478980;40;6991;-62
2021/04/08 03:27:37;;;;;;;;;;;;;;;;;;1480220;40;7117;-61
2021/04/08 03:28:42;;;;;;;;;;;;;;;;;;1483418;40;7944;-61
2021/04/08 03:29:44;;;;;;;;;;;;;;;;;;1483456;40;7409;-62
2021/04/08 03:30:47;;;;;;;;;;;;;;;;;;1482961;40;6991;-61
2021/04/08 03:31:49;;;;;;;;;;;;;;;;;;1482728;40;7121;-61
2021/04/08 03:32:53;;;;;;;;;;;;;;;;;;1483599;40;6999;-61
2021/04/08 03:33:56;;;;;;;;;;;;;;;;;;1483175;40;7512;-62
2021/04/08 03:34:59;;;;;;;;;;;;;;;;;;1483492;40;7008;-61
2021/04/08 03:36:02;;;;;;;;;;;;;;;;;;1483723;40;6996;-62
2021/04/08 03:37:05;;;;;;;;;;;;;;;;;;1483646;40;7032;-61
2021/04/08 03:38:07;;;;;;;;;;;;;;;;;;1483432;40;7974;-61
2021/04/08 03:39:10;;;;;;;;;;;;;;;;;;1483560;40;7027;-61
2021/04/08 03:40:12;;;;;;;;;;;;;;;;;;1483710;40;7141;-62
2021/04/08 03:41:17;;;;;;;;;;;;;;;;;;1483589;40;6999;-61
2021/04/08 03:42:21;;;;;;;;;;;;;;;;;;1483356;40;6988;-61
2021/04/08 03:43:24;;;;;;;;;;;;;;;;;;1483309;40;7039;-61
2021/04/08 03:44:28;;;;;;;;;;;;;;;;;;1483774;40;6991;-61
2021/04/08 03:45:30;;;;;;;;;;;;;;;;;;1481081;40;7031;-62
2021/04/08 03:46:34;;;;;;;;;;;;;;;;;;1479375;40;7003;-61
2021/04/08 03:47:39;;;;;;;;;;;;;;;;;;1479563;40;7039;-61
2021/04/08 03:48:42;;;;;;;;;;;;;;;;;;1479440;40;7859;-62
2021/04/08 03:49:47;;;;;;;;;;;;;;;;;;1479351;40;7043;-62
2021/04/08 03:50:49;;;;;;;;;;;;;;;;;;1479507;40;6999;-61
2021/04/08 03:51:53;;;;;;;;;;;;;;;;;;1479337;40;7035;-61
2021/04/08 03:52:55;;;;;;;;;;;;;;;;;;1479291;40;7023;-62
2021/04/08 03:53:58;;;;;;;;;;;;;;;;;;1479454;40;7124;-62
2021/04/08 03:55:02;;;;;;;;;;;;;;;;;;1479470;40;7414;-61
2021/04/08 03:56:07;;;;;;;;;;;;;;;;;;1479377;40;7109;-62
2021/04/08 03:57:14;;;;;;;;;;;;;;;;;;1479226;40;7044;-61
2021/04/08 03:58:17;;;;;;;;;;;;;;;;;;1479342;40;6988;-62
2021/04/08 03:59:20;;;;;;;;;;;;;;;;;;1479120;40;7031;-61
2021/04/08 04:00:23;;;;;;;;;;;;;;;;;;1479172;40;7863;-61
2021/04/08 04:01:25;;;;;;;;;;;;;;;;;;1479275;40;6999;-62
2021/04/08 04:02:27;;;;;;;;;;;;;;;;;;1479556;40;7031;-61
2021/04/08 04:03:29;;;;;;;;;;;;;;;;;;1479364;40;7020;-61
2021/04/08 04:04:32;;;;;;;;;;;;;;;;;;1479259;40;7003;-62
2021/04/08 04:05:36;;;;;;;;;;;;;;;;;;1479700;40;7128;-61
2021/04/08 04:06:41;;;;;;;;;;;;;;;;;;1478174;40;7898;-62
2021/04/08 04:07:50;;;;;;;;;;;;;;;;;;1479188;40;7966;-61
2021/04/08 04:08:52;;;;;;;;;;;;;;;;;;1477614;40;7031;-62
2021/04/08 04:09:54;;;;;;;;;;;;;;;;;;1479342;40;7001;-62
2021/04/08 04:10:57;;;;;;;;;;;;;;;;;;1479295;40;7420;-62
2021/04/08 04:11:59;;;;;;;;;;;;;;;;;;1479088;40;7063;-62
2021/04/08 04:13:02;;;;;;;;;;;;;;;;;;1479045;40;7128;-61
2021/04/08 04:14:07;;;;;;;;;;;;;;;;;;1478949;40;7543;-61
2021/04/08 04:15:10;;;;;;;;;;;;;;;;;;1479050;40;6999;-61
2021/04/08 04:16:14;;;;;;;;;;;;;;;;;;1479400;40;7031;-61
2021/04/08 04:17:24;;;;;;;;;;;;;;;;;;1479071;40;7936;-61
2021/04/08 04:18:26;;;;;;;;;;;;;;;;;;1478389;40;7023;-62
2021/04/08 04:19:28;;;;;;;;;;;;;;;;;;1478008;40;7138;-62
2021/04/08 04:20:30;;;;;;;;;;;;;;;;;;1478861;40;7944;-62
2021/04/08 04:21:32;;;;;;;;;;;;;;;;;;1478791;40;8835;-62
2021/04/08 04:22:35;;;;;;;;;;;;;;;;;;1478631;40;8362;-61
2021/04/08 04:23:37;;;;;;;;;;;;;;;;;;1478950;40;6999;-61
2021/04/08 04:24:40;;;;;;;;;;;;;;;;;;1478900;40;7031;-62
2021/04/08 04:25:41;;;;;;;;;;;;;;;;;;1479229;40;7015;-61
2021/04/08 04:26:44;;;;;;;;;;;;;;;;;;1477963;40;7144;-61
2021/04/08 04:27:45;;;;;;;;;;;;;;;;;;1477714;40;7011;-61
2021/04/08 04:28:47;;;;;;;;;;;;;;;;;;1479274;40;7004;-61
2021/04/08 04:29:49;;;;;;;;;;;;;;;;;;1479042;40;7008;-61
2021/04/08 04:30:51;;;;;;;;;;;;;;;;;;1478508;40;6991;-61
2021/04/08 04:31:53;;;;;;;;;;;;;;;;;;1478631;40;7896;-62
2021/04/08 04:32:55;;;;;;;;;;;;;;;;;;1479377;40;7028;-61
2021/04/08 04:33:58;;;;;;;;;;;;;;;;;;1478443;40;6991;-62
2021/04/08 04:35:00;;;;;;;;;;;;;;;;;;1479486;40;7917;-62
2021/04/08 04:36:02;;;;;;;;;;;;;;;;;;1479341;40;6987;-62
2021/04/08 04:37:04;;;;;;;;;;;;;;;;;;1474588;40;6995;-62
2021/04/08 04:38:06;;;;;;;;;;;;;;;;;;1474973;40;8051;-62
2021/04/08 04:39:08;;;;;;;;;;;;;;;;;;1479455;40;7207;-61
2021/04/08 04:40:11;;;;;;;;;;;;;;;;;;1479222;40;7250;-62
2021/04/08 04:41:13;;;;;;;;;;;;;;;;;;1479155;40;8273;-61
2021/04/08 04:42:15;;;;;;;;;;;;;;;;;;1478009;40;7319;-61
2021/04/08 04:43:17;;;;;;;;;;;;;;;;;;1479617;40;7907;-61
2021/04/08 04:44:20;;;;;;;;;;;;;;;;;;1479120;40;7113;-62
2021/04/08 04:45:22;;;;;;;;;;;;;;;;;;1479461;40;7180;-61
2021/04/08 04:46:24;;;;;;;;;;;;;;;;;;1479437;40;6991;-62
2021/04/08 04:47:27;;;;;;;;;;;;;;;;;;1479610;40;7945;-62
2021/04/08 04:48:29;;;;;;;;;;;;;;;;;;1479557;40;6991;-61
2021/04/08 04:49:31;;;;;;;;;;;;;;;;;;1479361;40;7119;-62
2021/04/08 04:50:33;;;;;;;;;;;;;;;;;;1479440;40;6991;-62
2021/04/08 04:51:35;;;;;;;;;;;;;;;;;;1479441;40;7254;-61
2021/04/08 04:52:38;;;;;;;;;;;;;;;;;;1481409;40;7116;-62
2021/04/08 04:53:39;;;;;;;;;;;;;;;;;;1483524;40;6999;-61
2021/04/08 04:54:43;;;;;;;;;;;;;;;;;;1482938;40;7941;-61
2021/04/08 04:55:45;;;;;;;;;;;;;;;;;;1483285;40;7027;-61
2021/04/08 04:56:47;;;;;;;;;;;;;;;;;;1483345;40;7009;-61
2021/04/08 04:57:48;;;;;;;;;;;;;;;;;;1483445;40;7039;-62
2021/04/08 04:58:50;;;;;;;;;;;;;;;;;;1483524;40;7008;-61
2021/04/08 04:59:52;;;;;;;;;;;;;;;;;;1483557;40;7055;-61
2021/04/08 05:00:54;;;;;;;;;;;;;;;;;;1483534;40;7886;-61
2021/04/08 05:01:56;;;;;;;;;;;;;;;;;;1483544;40;7792;-61
2021/04/08 05:02:58;;;;;;;;;;;;;;;;;;1483211;40;7027;-61
2021/04/08 05:04:00;;;;;;;;;;;;;;;;;;1483175;40;8011;-61
2021/04/08 05:05:02;;;;;;;;;;;;;;;;;;1483553;40;6999;-61
2021/04/08 05:06:05;;;;;;;;;;;;;;;;;;1483722;40;8013;-61
2021/04/08 05:07:07;;;;;;;;;;;;;;;;;;1483765;40;6992;-62
2021/04/08 05:08:09;;;;;;;;;;;;;;;;;;1481690;40;7039;-61
2021/04/08 05:09:11;;;;;;;;;;;;;;;;;;1483108;40;7130;-61
2021/04/08 05:10:12;;;;;;;;;;;;;;;;;;1483319;40;6988;-62
2021/04/08 05:11:15;;;;;;;;;;;;;;;;;;1483162;40;7121;-61
2021/04/08 05:12:17;;;;;;;;;;;;;;;;;;1479499;40;7148;-61
2021/04/08 05:13:19;;;;;;;;;;;;;;;;;;1479006;40;6999;-61
2021/04/08 05:14:25;;;;;;;;;;;;;;;;;;1482663;40;7009;-61
2021/04/08 05:15:27;;;;;;;;;;;;;;;;;;1482457;40;6999;-61
2021/04/08 05:16:47;;;;;;;;;;;;;;;;;;1479095;40;6996;-61
2021/04/08 05:17:49;;;;;;;;;;;;;;;;;;1478720;40;7987;-62
2021/04/08 05:18:52;;;;;;;;;;;;;;;;;;1478556;40;7105;-61
2021/04/08 05:19:55;;;;;;;;;;;;;;;;;;1479249;40;7187;-61
2021/04/08 05:20:57;;;;;;;;;;;;;;;;;;1479056;40;7863;-62
2021/04/08 05:21:59;;;;;;;;;;;;;;;;;;1482585;40;7008;-62
2021/04/08 05:23:05;;;;;;;;;;;;;;;;;;1483133;40;7066;-62
2021/04/08 05:24:07;;;;;;;;;;;;;;;;;;1482001;40;6991;-61
2021/04/08 05:25:09;;;;;;;;;;;;;;;;;;1478879;40;7036;-61
2021/04/08 05:26:12;;;;;;;;;;;;;;;;;;1479099;40;7007;-61
2021/04/08 05:27:13;;;;;;;;;;;;;;;;;;1479290;40;6996;-61
2021/04/08 05:28:16;;;;;;;;;;;;;;;;;;1483333;40;7007;-61
2021/04/08 05:29:18;;;;;;;;;;;;;;;;;;1483469;40;7027;-62
2021/04/08 05:30:20;;;;;;;;;;;;;;;;;;1482821;40;7235;-62
2021/04/08 05:31:22;;;;;;;;;;;;;;;;;;1482430;40;7929;-61
2021/04/08 05:32:24;;;;;;;;;;;;;;;;;;1483253;40;6996;-62
2021/04/08 05:33:26;;;;;;;;;;;;;;;;;;1483407;40;7906;-61
2021/04/08 05:34:28;;;;;;;;;;;;;;;;;;1483582;40;7019;-61
2021/04/08 05:35:30;;;;;;;;;;;;;;;;;;1479086;40;7047;-62
2021/04/08 05:36:32;;;;;;;;;;;;;;;;;;1483259;40;6992;-61
2021/04/08 05:37:34;;;;;;;;;;;;;;;;;;1482494;40;6999;-62
2021/04/08 05:38:36;;;;;;;;;;;;;;;;;;1478911;40;7008;-61
2021/04/08 05:39:37;;;;;;;;;;;;;;;;;;1479158;40;7946;-62
2021/04/08 05:40:39;;;;;;;;;;;;;;;;;;1479162;40;7093;-62
2021/04/08 05:41:42;;;;;;;;;;;;;;;;;;1479449;40;7920;-62
2021/04/08 05:42:45;;;;;;;;;;;;;;;;;;1478973;40;7023;-62
2021/04/08 05:43:47;;;;;;;;;;;;;;;;;;1479114;40;7235;-61
2021/04/08 05:44:49;;;;;;;;;;;;;;;;;;1479366;40;7020;-61
2021/04/08 05:45:51;;;;;;;;;;;;;;;;;;1479126;40;7044;-61
2021/04/08 05:46:53;;;;;;;;;;;;;;;;;;1479110;40;7930;-61
2021/04/08 05:47:56;;;;;;;;;;;;;;;;;;1479236;40;7023;-61
2021/04/08 05:48:58;;;;;;;;;;;;;;;;;;1479076;40;7250;-61
2021/04/08 05:49:59;;;;;;;;;;;;;;;;;;1479748;40;7105;-62
2021/04/08 05:51:04;;;;;;;;;;;;;;;;;;1479013;40;7942;-61
2021/04/08 05:52:07;;;;;;;;;;;;;;;;;;1479112;40;6991;-61
2021/04/08 05:53:09;;;;;;;;;;;;;;;;;;1479267;40;7031;-61
2021/04/08 05:54:11;;;;;;;;;;;;;;;;;;1478268;40;6991;-61
2021/04/08 05:55:13;;;;;;;;;;;;;;;;;;1479045;40;7023;-62
2021/04/08 05:56:15;;;;;;;;;;;;;;;;;;1478888;40;6992;-61
2021/04/08 05:57:17;;;;;;;;;;;;;;;;;;1478939;40;6991;-61
2021/04/08 05:58:19;;;;;;;;;;;;;;;;;;1479140;40;7107;-61
2021/04/08 05:59:21;;;;;;;;;;;;;;;;;;1479067;40;7859;-61
2021/04/08 06:00:23;;;;;;;;;;;;;;;;;;1479432;40;7934;-61
2021/04/08 06:01:25;;;;;;;;;;;;;;;;;;1479140;40;6987;-62
2021/04/08 06:02:31;;;;;;;;;;;;;;;;;;1479246;40;7023;-61
2021/04/08 06:03:33;;;;;;;;;;;;;;;;;;1478554;40;6991;-62
2021/04/08 06:04:35;;;;;;;;;;;;;;;;;;1478132;40;7044;-62
2021/04/08 06:05:37;;;;;;;;;;;;;;;;;;1479318;40;7008;-62
2021/04/08 06:06:39;;;;;;;;;;;;;;;;;;1479256;40;7114;-61
2021/04/08 06:07:42;;;;;;;;;;;;;;;;;;1478923;40;7275;-62
2021/04/08 06:08:43;;;;;;;;;;;;;;;;;;1478151;40;7219;-62
2021/04/08 06:09:45;;;;;;;;;;;;;;;;;;1478493;40;7184;-61
2021/04/08 06:10:47;;;;;;;;;;;;;;;;;;1479353;40;6999;-61
2021/04/08 06:11:49;;;;;;;;;;;;;;;;;;1478564;40;6999;-61
2021/04/08 06:12:51;;;;;;;;;;;;;;;;;;1479025;40;7027;-61
2021/04/08 06:13:54;;;;;;;;;;;;;;;;;;1478647;40;7043;-62
2021/04/08 06:14:56;;;;;;;;;;;;;;;;;;1478587;40;7062;-61
2021/04/08 06:15:58;;;;;;;;;;;;;;;;;;1478616;40;7936;-61
2021/04/08 06:17:00;;;;;;;;;;;;;;;;;;1478577;40;7194;-62
2021/04/08 06:18:03;;;;;;;;;;;;;;;;;;1478844;40;6999;-61
2021/04/08 06:19:05;;;;;;;;;;;;;;;;;;1478313;40;7870;-62
2021/04/08 06:20:08;;;;;;;;;;;;;;;;;;1478833;40;7133;-61
2021/04/08 06:21:11;;;;;;;;;;;;;;;;;;1478517;40;7020;-62
2021/04/08 06:22:13;;;;;;;;;;;;;;;;;;1478097;40;7951;-61
2021/04/08 06:23:15;;;;;;;;;;;;;;;;;;1478597;40;6999;-61
2021/04/08 06:24:17;;;;;;;;;;;;;;;;;;1478560;40;6991;-61
2021/04/08 06:25:19;;;;;;;;;;;;;;;;;;1478933;40;7031;-61
2021/04/08 06:26:22;;;;;;;;;;;;;;;;;;1478644;40;7019;-61
2021/04/08 06:27:24;;;;;;;;;;;;;;;;;;1478966;40;7016;-61
2021/04/08 06:28:26;;;;;;;;;;;;;;;;;;1479418;40;7004;-61
2021/04/08 06:29:29;;;;;;;;;;;;;;;;;;1479137;40;7055;-61
2021/04/08 06:30:31;;;;;;;;;;;;;;;;;;1478503;40;7036;-61
2021/04/08 06:31:34;;;;;;;;;;;;;;;;;;1478134;40;7036;-62
2021/04/08 06:32:37;;;;;;;;;;;;;;;;;;1478864;40;7934;-61
2021/04/08 06:33:39;;;;;;;;;;;;;;;;;;1478985;40;7001;-61
2021/04/08 06:34:42;;;;;;;;;;;;;;;;;;1478773;40;7003;-62
2021/04/08 06:35:44;;;;;;;;;;;;;;;;;;1479271;40;7000;-61
2021/04/08 06:36:46;;;;;;;;;;;;;;;;;;1478988;40;7011;-62
2021/04/08 06:37:52;;;;;;;;;;;;;;;;;;1479273;40;7000;-61
2021/04/08 06:38:54;;;;;;;;;;;;;;;;;;1479026;40;7035;-61
2021/04/08 06:39:58;;;;;;;;;;;;;;;;;;1474271;40;7283;-61
2021/04/08 06:41:00;;;;;;;;;;;;;;;;;;1474672;40;7119;-61
2021/04/08 06:42:02;;;;;;;;;;;;;;;;;;1478974;40;7023;-61
2021/04/08 06:43:08;;;;;;;;;;;;;;;;;;1477869;40;7028;-62
2021/04/08 06:44:13;;;;;;;;;;;;;;;;;;1479058;40;7035;-62
2021/04/08 06:45:15;;;;;;;;;;;;;;;;;;1478840;40;7919;-61
2021/04/08 06:46:29;;;;;;;;;;;;;;;;;;1479252;40;7000;-61
2021/04/08 06:47:49;;;;;;;;;;;;;;;;;;1478988;40;7885;-62
2021/04/08 06:48:59;;;;;;;;;;;;;;;;;;1478843;40;7140;-62
2021/04/08 06:50:06;;;;;;;;;;;;;;;;;;1478813;40;6991;-61
2021/04/08 06:51:13;;;;;;;;;;;;;;;;;;1478748;40;6992;-62
2021/04/08 06:52:19;;;;;;;;;;;;;;;;;;1479108;40;7008;-62
2021/04/08 06:53:21;;;;;;;;;;;;;;;;;;1478852;40;7027;-62
2021/04/08 06:54:24;;;;;;;;;;;;;;;;;;1479050;40;6999;-62
2021/04/08 06:55:26;;;;;;;;;;;;;;;;;;1479217;40;6995;-62
2021/04/08 06:56:29;;;;;;;;;;;;;;;;;;1479853;40;7019;-61
2021/04/08 06:57:31;;;;;;;;;;;;;;;;;;1479553;40;7031;-61
2021/04/08 06:58:34;;;;;;;;;;;;;;;;;;1479525;40;7007;-61
2021/04/08 06:59:49;;;;;;;;;;;;;;;;;;1479540;40;7897;-62
2021/04/08 07:00:52;;;;;;;;;;;;;;;;;;1479430;40;6999;-62
2021/04/08 07:01:55;;;;;;;;;;;;;;;;;;1479420;40;6999;-61
2021/04/08 07:02:58;;;;;;;;;;;;;;;;;;1479469;40;7015;-62
2021/04/08 07:04:01;;;;;;;;;;;;;;;;;;1479221;40;7101;-62
2021/04/08 07:05:04;;;;;;;;;;;;;;;;;;1479495;40;7116;-62
2021/04/08 07:06:06;;;;;;;;;;;;;;;;;;1479316;40;7001;-62
2021/04/08 07:07:08;;;;;;;;;;;;;;;;;;1479460;40;7007;-62
2021/04/08 07:08:10;;;;;;;;;;;;;;;;;;1478802;40;7863;-62
2021/04/08 07:09:12;;;;;;;;;;;;;;;;;;1479695;40;7189;-62
2021/04/08 07:10:14;;;;;;;;;;;;;;;;;;1479709;40;7040;-61
2021/04/08 07:11:16;;;;;;;;;;;;;;;;;;1479056;40;7009;-62
2021/04/08 07:12:19;;;;;;;;;;;;;;;;;;1479283;40;7013;-62
2021/04/08 07:13:21;;;;;;;;;;;;;;;;;;1479162;40;7007;-62
2021/04/08 07:14:24;;;;;;;;;;;;;;;;;;1479004;40;7027;-61
2021/04/08 07:15:26;;;;;;;;;;;;;;;;;;1479147;40;7894;-62
2021/04/08 07:16:29;;;;;;;;;;;;;;;;;;1479172;40;7105;-62
2021/04/08 07:17:31;;;;;;;;;;;;;;;;;;1479413;40;7104;-61
2021/04/08 07:18:33;;;;;;;;;;;;;;;;;;1479244;40;7942;-62
2021/04/08 07:19:36;;;;;;;;;;;;;;;;;;1478361;40;7019;-61
2021/04/08 07:20:38;;;;;;;;;;;;;;;;;;1478984;40;7067;-62
2021/04/08 07:21:41;;;;;;;;;;;;;;;;;;1479072;40;6992;-62